createdAt,value
2023-09-17T00:01:54.843Z,101292.84
2023-09-17T00:04:24.453Z,101291.44
2023-09-17T00:06:52.893Z,101290.75
2023-09-17T00:09:21.259Z,101281.59
2023-09-17T00:11:49.668Z,101282.65
2023-09-17T00:14:18.365Z,101283.55
2023-09-17T00:16:47.936Z,101285.48
2023-09-17T00:19:17.754Z,101285.17
2023-09-17T00:21:46.247Z,101284.77
2023-09-17T00:24:14.614Z,101283.10
2023-09-17T00:26:42.948Z,101280.70
2023-09-17T00:29:11.297Z,101283.02
2023-09-17T00:31:39.951Z,101280.16
2023-09-17T00:34:08.529Z,101279.76
2023-09-17T00:36:36.960Z,101275.48
2023-09-17T00:39:05.431Z,101275.05
2023-09-17T00:41:33.921Z,101277.96
2023-09-17T00:44:03.529Z,101276.70
2023-09-17T00:46:33.092Z,101276.71
2023-09-17T00:49:01.970Z,101277.05
2023-09-17T00:51:30.529Z,101275.81
2023-09-17T00:54:00.254Z,101276.80
2023-09-17T00:56:29.282Z,101275.23
2023-09-17T00:58:58.493Z,101269.64
2023-09-17T01:01:27.236Z,101267.27
2023-09-17T01:03:56.970Z,101267.21
2023-09-17T01:06:25.834Z,101268.65
2023-09-17T01:08:54.775Z,101262.85
2023-09-17T01:11:24.196Z,101264.54
2023-09-17T01:14:01.857Z,101263.93
2023-09-17T01:16:30.481Z,101261.31
2023-09-17T01:19:01.255Z,101268.65
2023-09-17T01:21:49.569Z,101266.16
2023-09-17T01:24:55.944Z,101268.11
2023-09-17T01:27:24.405Z,101267.13
2023-09-17T01:29:54.450Z,101267.83
2023-09-17T01:32:23.394Z,101264.16
2023-09-17T01:34:54.535Z,101258.84
2023-09-17T01:37:33.419Z,101260.95
2023-09-17T01:40:09.256Z,101257.38
2023-09-17T01:42:41.671Z,101255.63
2023-09-17T01:45:14.059Z,101256.33
2023-09-17T01:47:44.662Z,101252.75
2023-09-17T01:50:16.706Z,101250.79
2023-09-17T01:52:46.556Z,101249.69
2023-09-17T01:55:14.959Z,101252.40
2023-09-17T01:57:43.487Z,101244.36
2023-09-17T02:00:18.330Z,101243.88
2023-09-17T02:02:50.536Z,101244.98
2023-09-17T02:05:21.924Z,101244.91
2023-09-17T02:07:50.280Z,101245.97
2023-09-17T02:10:19.504Z,101247.27
2023-09-17T02:12:48.680Z,101248.98
2023-09-17T02:15:17.112Z,101246.85
2023-09-17T02:17:45.552Z,101246.95
2023-09-17T02:20:14.125Z,101245.20
2023-09-17T02:22:42.622Z,101243.92
2023-09-17T02:25:11.739Z,101242.16
2023-09-17T02:27:40.325Z,101242.20
2023-09-17T02:30:09.784Z,101239.27
2023-09-17T02:32:40.913Z,101238.88
2023-09-17T02:35:09.804Z,101234.91
2023-09-17T02:37:38.974Z,101236.04
2023-09-17T02:40:10.751Z,101234.21
2023-09-17T02:42:39.757Z,101234.19
2023-09-17T02:45:10.409Z,101235.14
2023-09-17T02:47:41.959Z,101231.50
2023-09-17T02:50:13.023Z,101230.04
2023-09-17T02:52:41.495Z,101230.98
2023-09-17T02:55:09.996Z,101237.94
2023-09-17T02:57:38.856Z,101240.52
2023-09-17T03:00:11.990Z,101241.04
2023-09-17T03:02:41.753Z,101242.86
2023-09-17T03:05:11.951Z,101243.09
2023-09-17T03:07:40.975Z,101241.79
2023-09-17T03:10:12.732Z,101241.11
2023-09-17T03:12:41.424Z,101242.59
2023-09-17T03:15:10.197Z,101243.50
2023-09-17T03:17:39.193Z,101247.11
2023-09-17T03:20:44.495Z,101246.23
2023-09-17T03:23:13.610Z,101245.77
2023-09-17T03:25:42.868Z,101245.44
2023-09-17T03:28:13.253Z,101244.30
2023-09-17T03:30:42.290Z,101246.99
2023-09-17T03:33:11.281Z,101245.06
2023-09-17T03:35:44.476Z,101248.30
2023-09-17T03:38:12.940Z,101247.36
2023-09-17T03:40:42.177Z,101251.71
2023-09-17T03:43:11.564Z,101253.21
2023-09-17T03:45:40.892Z,101256.77
2023-09-17T03:48:09.577Z,101261.13
2023-09-17T03:50:40.701Z,101261.41
2023-09-17T03:53:09.798Z,101260.43
2023-09-17T03:55:39.308Z,101257.66
2023-09-17T03:58:10.379Z,101260.57
2023-09-17T04:00:46.236Z,101256.35
2023-09-17T04:03:15.966Z,101256.20
2023-09-17T04:05:45.846Z,101256.73
2023-09-17T04:08:14.209Z,101259.62
2023-09-17T04:10:42.945Z,101261.24
2023-09-17T04:13:11.281Z,101262.93
2023-09-17T04:15:39.647Z,101265.17
2023-09-17T04:18:08.379Z,101261.58
2023-09-17T04:20:36.982Z,101262.70
2023-09-17T04:23:05.778Z,101264.59
2023-09-17T04:25:36.503Z,101269.29
2023-09-17T04:28:06.456Z,101267.20
2023-09-17T04:30:35.868Z,101268.81
2023-09-17T04:33:05.155Z,101270.73
2023-09-17T04:35:34.219Z,101269.54
2023-09-17T04:38:02.748Z,101269.39
2023-09-17T04:40:32.825Z,101271.41
2023-09-17T04:43:05.372Z,101266.88
2023-09-17T04:45:35.478Z,101267.61
2023-09-17T04:48:08.033Z,101266.69
2023-09-17T04:50:37.328Z,101265.98
2023-09-17T04:53:05.773Z,101264.60
2023-09-17T04:55:34.724Z,101260.01
2023-09-17T04:58:03.348Z,101257.32
2023-09-17T05:00:32.164Z,101261.90
2023-09-17T05:03:00.620Z,101264.00
2023-09-17T05:05:29.386Z,101267.45
2023-09-17T05:07:57.794Z,101269.48
2023-09-17T05:10:27.942Z,101270.79
2023-09-17T05:12:57.893Z,101274.32
2023-09-17T05:15:26.708Z,101276.90
2023-09-17T05:17:56.681Z,101279.11
2023-09-17T05:20:25.071Z,101280.52
2023-09-17T05:22:53.813Z,101278.65
2023-09-17T05:25:22.612Z,101278.17
2023-09-17T05:27:51.132Z,101275.71
2023-09-17T05:30:19.677Z,101277.48
2023-09-17T05:32:48.943Z,101277.42
2023-09-17T05:35:17.392Z,101279.44
2023-09-17T05:37:45.974Z,101285.59
2023-09-17T05:40:14.350Z,101285.92
2023-09-17T05:42:42.798Z,101288.34
2023-09-17T05:45:11.491Z,101287.15
2023-09-17T05:47:41.717Z,101289.70
2023-09-17T05:50:11.508Z,101295.95
2023-09-17T05:52:40.798Z,101294.28
2023-09-17T05:55:09.962Z,101298.04
2023-09-17T05:57:38.673Z,101299.96
2023-09-17T06:00:08.906Z,101299.83
2023-09-17T06:02:43.291Z,101300.95
2023-09-17T06:05:12.943Z,101300.79
2023-09-17T06:07:41.351Z,101305.97
2023-09-17T06:10:10.571Z,101301.89
2023-09-17T06:12:38.989Z,101303.65
2023-09-17T06:15:08.778Z,101296.68
2023-09-17T06:17:39.810Z,101296.35
2023-09-17T06:20:09.508Z,101299.92
2023-09-17T06:22:37.909Z,101298.55
2023-09-17T06:25:07.973Z,101303.31
2023-09-17T06:27:36.569Z,101308.01
2023-09-17T06:30:06.423Z,101311.45
2023-09-17T06:32:35.215Z,101314.81
2023-09-17T06:35:04.197Z,101314.98
2023-09-17T06:37:32.653Z,101317.04
2023-09-17T06:40:01.150Z,101316.67
2023-09-17T06:42:30.827Z,101316.91
2023-09-17T06:44:59.152Z,101318.20
2023-09-17T06:47:27.728Z,101324.51
2023-09-17T06:49:56.186Z,101327.33
2023-09-17T06:52:26.823Z,101328.19
2023-09-17T06:54:55.530Z,101326.09
2023-09-17T06:57:23.926Z,101326.55
2023-09-17T06:59:52.285Z,101326.65
2023-09-17T07:02:20.695Z,101328.27
2023-09-17T07:04:49.321Z,101325.60
2023-09-17T07:07:17.767Z,101323.80
2023-09-17T07:09:46.482Z,101326.94
2023-09-17T07:12:14.917Z,101327.03
2023-09-17T07:14:43.317Z,101324.02
2023-09-17T07:17:11.744Z,101327.77
2023-09-17T07:19:40.229Z,101324.30
2023-09-17T07:22:13.665Z,101322.49
2023-09-17T07:24:43.468Z,101324.80
2023-09-17T07:27:11.836Z,101324.84
2023-09-17T07:29:40.198Z,101323.73
2023-09-17T07:32:08.626Z,101323.63
2023-09-17T07:34:37.077Z,101328.55
2023-09-17T07:37:05.901Z,101328.69
2023-09-17T07:39:34.327Z,101331.55
2023-09-17T07:42:03.741Z,101330.67
2023-09-17T07:44:32.128Z,101328.54
2023-09-17T07:47:00.537Z,101329.13
2023-09-17T07:49:30.458Z,101325.23
2023-09-17T07:51:59.006Z,101326.91
2023-09-17T07:54:27.480Z,101329.00
2023-09-17T07:56:55.777Z,101332.95
2023-09-17T07:59:24.177Z,101331.76
2023-09-17T08:01:52.894Z,101326.66
2023-09-17T08:04:21.488Z,101328.91
2023-09-17T08:06:50.548Z,101319.79
2023-09-17T08:09:19.095Z,101319.70
2023-09-17T08:11:47.588Z,101317.04
2023-09-17T08:14:16.787Z,101317.91
2023-09-17T08:16:45.418Z,101317.09
2023-09-17T08:19:13.869Z,101313.16
2023-09-17T08:21:42.258Z,101304.29
2023-09-17T08:24:11.639Z,101304.66
2023-09-17T08:26:40.008Z,101304.23
2023-09-17T08:29:08.358Z,101304.28
2023-09-17T08:31:37.001Z,101305.01
2023-09-17T08:34:05.389Z,101308.14
2023-09-17T08:36:34.004Z,101301.73
2023-09-17T08:39:05.232Z,101294.84
2023-09-17T08:41:36.342Z,101301.83
2023-09-17T08:44:05.966Z,101299.55
2023-09-17T08:46:36.516Z,101299.11
2023-09-17T08:49:05.051Z,101294.67
2023-09-17T08:51:38.758Z,101291.98
2023-09-17T08:54:34.734Z,101292.69
2023-09-17T08:57:05.222Z,101288.70
2023-09-17T08:59:48.133Z,101285.41
2023-09-17T09:02:24.026Z,101291.30
2023-09-17T09:04:53.563Z,101290.42
2023-09-17T09:07:23.941Z,101289.41
2023-09-17T09:09:53.358Z,101289.22
2023-09-17T09:12:22.320Z,101287.86
2023-09-17T09:14:51.855Z,101285.55
2023-09-17T09:17:20.915Z,101277.67
2023-09-17T09:19:49.599Z,101272.36
2023-09-17T09:22:17.964Z,101278.33
2023-09-17T09:24:50.582Z,101276.68
2023-09-17T09:27:18.904Z,101272.57
2023-09-17T09:29:48.266Z,101266.34
2023-09-17T09:32:18.766Z,101272.55
2023-09-17T09:34:49.441Z,101270.93
2023-09-17T09:37:24.248Z,101267.86
2023-09-17T09:39:53.554Z,101267.06
2023-09-17T09:42:24.534Z,101269.24
2023-09-17T09:44:53.680Z,101264.71
2023-09-17T09:47:26.837Z,101264.25
2023-09-17T09:49:55.328Z,101262.73
2023-09-17T09:52:27.035Z,101262.48
2023-09-17T09:54:55.428Z,101256.31
2023-09-17T09:57:26.800Z,101252.23
2023-09-17T09:59:55.324Z,101245.33
2023-09-17T10:02:23.819Z,101258.89
2023-09-17T10:04:52.434Z,101254.69
2023-09-17T10:07:21.631Z,101259.03
2023-09-17T10:09:50.056Z,101256.34
2023-09-17T10:12:18.526Z,101250.41
2023-09-17T10:14:48.165Z,101251.17
2023-09-17T10:17:18.258Z,101247.44
2023-09-17T10:19:49.321Z,101247.82
2023-09-17T10:22:20.182Z,101250.07
2023-09-17T10:24:51.268Z,101249.98
2023-09-17T10:27:23.342Z,101248.83
2023-09-17T10:29:52.404Z,101243.67
2023-09-17T10:32:21.396Z,101241.30
2023-09-17T10:34:54.316Z,101242.36
2023-09-17T10:37:23.324Z,101235.39
2023-09-17T10:39:52.156Z,101234.45
2023-09-17T10:42:22.182Z,101234.60
2023-09-17T10:44:54.445Z,101233.76
2023-09-17T10:47:25.524Z,101229.45
2023-09-17T10:49:54.662Z,101231.86
2023-09-17T10:52:24.267Z,101234.49
2023-09-17T10:54:52.573Z,101234.64
2023-09-17T10:57:44.500Z,101231.31
2023-09-17T11:00:18.701Z,101230.42
2023-09-17T11:02:53.878Z,101232.00
2023-09-17T11:05:26.145Z,101230.55
2023-09-17T11:08:02.489Z,101229.17
2023-09-17T11:10:32.822Z,101227.77
2023-09-17T11:13:01.888Z,101225.68
2023-09-17T11:15:31.204Z,101220.74
2023-09-17T11:18:03.099Z,101220.10
2023-09-17T11:20:32.371Z,101215.10
2023-09-17T11:23:02.696Z,101212.27
2023-09-17T11:25:38.789Z,101211.74
2023-09-17T11:28:12.861Z,101212.34
2023-09-17T11:31:03.649Z,101208.10
2023-09-17T11:33:33.409Z,101209.48
2023-09-17T11:36:02.654Z,101200.31
2023-09-17T11:38:31.762Z,101197.67
2023-09-17T11:41:10.088Z,101193.98
2023-09-17T11:43:52.185Z,101193.77
2023-09-17T11:46:21.576Z,101194.72
2023-09-17T11:48:50.081Z,101198.02
2023-09-17T11:51:28.880Z,101195.89
2023-09-17T11:54:07.413Z,101195.50
2023-09-17T11:56:46.816Z,101189.89
2023-09-17T11:59:18.259Z,101183.60
2023-09-17T12:01:55.444Z,101178.63
2023-09-17T12:04:38.754Z,101181.62
2023-09-17T12:07:13.557Z,101184.58
2023-09-17T12:10:03.807Z,101179.25
2023-09-17T12:12:36.119Z,101178.72
2023-09-17T12:15:06.286Z,101174.70
2023-09-17T12:17:43.867Z,101171.10
2023-09-17T12:21:00.443Z,101177.23
2023-09-17T12:24:09.811Z,101175.02
2023-09-17T12:27:38.213Z,101173.34
2023-09-17T12:30:09.918Z,101165.39
2023-09-17T12:32:38.589Z,101161.41
2023-09-17T12:35:08.072Z,101163.64
2023-09-17T12:37:36.504Z,101159.91
2023-09-17T12:40:08.961Z,101154.06
2023-09-17T12:42:37.376Z,101155.16
2023-09-17T12:45:06.539Z,101148.79
2023-09-17T12:47:35.296Z,101152.27
2023-09-17T12:50:06.095Z,101150.55
2023-09-17T12:52:35.158Z,101143.59
2023-09-17T12:55:04.617Z,101142.92
2023-09-17T12:57:33.447Z,101145.88
2023-09-17T13:00:04.735Z,101139.20
2023-09-17T13:02:34.203Z,101133.77
2023-09-17T13:05:02.972Z,101132.02
2023-09-17T13:07:32.908Z,101128.13
2023-09-17T13:10:01.745Z,101128.81
2023-09-17T13:12:30.886Z,101135.05
2023-09-17T13:14:59.915Z,101127.60
2023-09-17T13:17:30.470Z,101128.86
2023-09-17T13:19:59.415Z,101128.70
2023-09-17T13:22:28.262Z,101120.51
2023-09-17T13:24:58.492Z,101124.48
2023-09-17T13:27:30.673Z,101123.88
2023-09-17T13:29:59.452Z,101121.33
2023-09-17T13:32:28.279Z,101120.73
2023-09-17T13:34:56.769Z,101111.08
2023-09-17T13:37:26.127Z,101110.80
2023-09-17T13:39:54.677Z,101104.81
2023-09-17T13:42:23.070Z,101105.84
2023-09-17T13:44:56.215Z,101108.59
2023-09-17T13:47:24.503Z,101106.66
2023-09-17T13:49:52.832Z,101108.05
2023-09-17T13:52:21.236Z,101102.23
2023-09-17T13:54:49.676Z,101101.08
2023-09-17T13:57:19.435Z,101106.60
2023-09-17T13:59:47.807Z,101105.05
2023-09-17T14:02:17.820Z,101100.55
2023-09-17T14:04:46.582Z,101097.91
2023-09-17T14:07:15.306Z,101101.20
2023-09-17T14:09:43.719Z,101107.24
2023-09-17T14:12:12.625Z,101105.63
2023-09-17T14:14:40.990Z,101098.02
2023-09-17T14:17:10.668Z,101099.74
2023-09-17T14:19:39.168Z,101100.08
2023-09-17T14:22:07.503Z,101098.48
2023-09-17T14:24:38.218Z,101096.41
2023-09-17T14:27:06.627Z,101092.95
2023-09-17T14:29:35.043Z,101090.09
2023-09-17T14:32:04.289Z,101087.41
2023-09-17T14:34:32.748Z,101087.85
2023-09-17T14:37:01.029Z,101092.61
2023-09-17T14:39:29.396Z,101094.80
2023-09-17T14:41:57.846Z,101094.25
2023-09-17T14:44:26.313Z,101087.44
2023-09-17T14:47:00.155Z,101087.59
2023-09-17T14:49:28.659Z,101087.56
2023-09-17T14:51:57.091Z,101087.33
2023-09-17T14:54:26.499Z,101090.19
2023-09-17T14:56:54.921Z,101084.64
2023-09-17T14:59:23.474Z,101083.31
2023-09-17T15:01:59.024Z,101080.77
2023-09-17T15:04:33.004Z,101082.37
2023-09-17T15:07:01.611Z,101082.08
2023-09-17T15:09:30.026Z,101079.80
2023-09-17T15:11:58.361Z,101075.23
2023-09-17T15:14:26.711Z,101073.68
2023-09-17T15:16:55.177Z,101069.10
2023-09-17T15:19:24.082Z,101062.19
2023-09-17T15:21:52.612Z,101065.41
2023-09-17T15:24:20.975Z,101062.02
2023-09-17T15:26:49.304Z,101063.20
2023-09-17T15:29:17.810Z,101065.52
2023-09-17T15:31:46.555Z,101065.21
2023-09-17T15:34:15.489Z,101064.52
2023-09-17T15:36:45.321Z,101060.95
2023-09-17T15:39:13.677Z,101061.28
2023-09-17T15:41:42.051Z,101065.10
2023-09-17T15:44:11.439Z,101068.68
2023-09-17T15:46:43.379Z,101061.51
2023-09-17T15:49:12.317Z,101058.22
2023-09-17T15:51:40.717Z,101063.41
2023-09-17T15:54:09.211Z,101063.88
2023-09-17T15:56:37.585Z,101059.41
2023-09-17T15:59:06.048Z,101063.14
2023-09-17T16:01:34.535Z,101064.18
2023-09-17T16:04:03.384Z,101064.27
2023-09-17T16:06:32.098Z,101069.59
2023-09-17T16:09:00.442Z,101071.54
2023-09-17T16:11:31.524Z,101074.20
2023-09-17T16:13:59.947Z,101071.52
2023-09-17T16:16:28.288Z,101069.61
2023-09-17T16:18:56.766Z,101073.14
2023-09-17T16:21:25.099Z,101071.45
2023-09-17T16:23:53.874Z,101071.23
2023-09-17T16:26:22.493Z,101075.58
2023-09-17T16:28:50.863Z,101075.23
2023-09-17T16:31:19.528Z,101079.08
2023-09-17T16:33:48.088Z,101074.73
2023-09-17T16:36:16.558Z,101074.41
2023-09-17T16:38:45.175Z,101072.38
2023-09-17T16:41:13.634Z,101073.27
2023-09-17T16:43:42.364Z,101079.75
2023-09-17T16:46:11.229Z,101081.99
2023-09-17T16:48:39.692Z,101083.58
2023-09-17T16:51:08.038Z,101089.55
2023-09-17T16:53:36.354Z,101087.13
2023-09-17T16:56:05.044Z,101087.05
2023-09-17T16:58:33.402Z,101091.20
2023-09-17T17:01:02.154Z,101093.20
2023-09-17T17:03:30.803Z,101096.91
2023-09-17T17:05:59.147Z,101097.08
2023-09-17T17:08:27.752Z,101102.03
2023-09-17T17:10:58.327Z,101099.15
2023-09-17T17:13:26.754Z,101101.35
2023-09-17T17:15:55.255Z,101100.26
2023-09-17T17:18:23.723Z,101099.25
2023-09-17T17:20:52.138Z,101107.65
2023-09-17T17:23:20.558Z,101107.59
2023-09-17T17:25:49.824Z,101112.55
2023-09-17T17:28:18.270Z,101116.77
2023-09-17T17:30:46.656Z,101112.77
2023-09-17T17:33:15.003Z,101113.96
2023-09-17T17:35:43.451Z,101113.06
2023-09-17T17:38:12.030Z,101113.83
2023-09-17T17:40:40.350Z,101117.55
2023-09-17T17:43:08.947Z,101117.54
2023-09-17T17:45:38.893Z,101120.45
2023-09-17T17:48:08.227Z,101121.86
2023-09-17T17:50:36.766Z,101125.90
2023-09-17T17:53:05.391Z,101128.42
2023-09-17T17:55:33.755Z,101131.66
2023-09-17T17:58:02.692Z,101132.18
2023-09-17T18:00:32.024Z,101133.58
2023-09-17T18:03:00.549Z,101140.95
2023-09-17T18:05:29.977Z,101143.20
2023-09-17T18:07:58.529Z,101143.55
2023-09-17T18:10:27.005Z,101144.56
2023-09-17T18:12:56.029Z,101140.77
2023-09-17T18:15:24.438Z,101140.56
2023-09-17T18:17:55.064Z,101140.83
2023-09-17T18:20:23.667Z,101141.00
2023-09-17T18:22:52.034Z,101140.77
2023-09-17T18:25:20.361Z,101140.55
2023-09-17T18:27:48.696Z,101141.68
2023-09-17T18:30:17.044Z,101145.27
2023-09-17T18:32:45.483Z,101147.02
2023-09-17T18:35:13.914Z,101144.28
2023-09-17T18:37:42.880Z,101149.59
2023-09-17T18:40:11.515Z,101151.48
2023-09-17T18:42:39.900Z,101152.96
2023-09-17T18:45:11.271Z,101158.34
2023-09-17T18:47:40.162Z,101160.44
2023-09-17T18:50:09.105Z,101159.96
2023-09-17T18:52:37.522Z,101153.67
2023-09-17T18:55:06.725Z,101165.29
2023-09-17T18:57:35.103Z,101177.28
2023-09-17T19:00:05.896Z,101175.65
2023-09-17T19:02:35.992Z,101171.01
2023-09-17T19:05:05.540Z,101175.58
2023-09-17T19:07:35.384Z,101174.21
2023-09-17T19:10:05.777Z,101173.90
2023-09-17T19:12:34.203Z,101168.80
2023-09-17T19:15:02.528Z,101170.80
2023-09-17T19:17:32.949Z,101171.61
2023-09-17T19:20:01.398Z,101175.52
2023-09-17T19:22:29.965Z,101177.73
2023-09-17T19:24:58.321Z,101173.64
2023-09-17T19:27:26.756Z,101173.27
2023-09-17T19:29:55.063Z,101173.62
2023-09-17T19:32:23.433Z,101171.34
2023-09-17T19:34:55.381Z,101170.50
2023-09-17T19:37:24.108Z,101167.88
2023-09-17T19:39:52.582Z,101170.02
2023-09-17T19:42:21.720Z,101171.20
2023-09-17T19:44:50.094Z,101167.76
2023-09-17T19:47:18.942Z,101166.12
2023-09-17T19:49:47.294Z,101170.80
2023-09-17T19:52:16.414Z,101168.65
2023-09-17T19:54:45.434Z,101169.96
2023-09-17T19:57:14.631Z,101169.52
2023-09-17T19:59:44.180Z,101174.77
2023-09-17T20:02:12.652Z,101173.73
2023-09-17T20:04:41.054Z,101169.36
2023-09-17T20:07:09.392Z,101171.75
2023-09-17T20:09:37.792Z,101170.55
2023-09-17T20:12:06.739Z,101166.90
2023-09-17T20:14:35.050Z,101169.04
2023-09-17T20:17:03.717Z,101169.63
2023-09-17T20:19:36.336Z,101174.29
2023-09-17T20:22:05.076Z,101171.61
2023-09-17T20:24:33.542Z,101170.86
2023-09-17T20:27:01.944Z,101171.02
2023-09-17T20:29:30.342Z,101169.27
2023-09-17T20:31:58.940Z,101166.93
2023-09-17T20:34:27.437Z,101171.66
2023-09-17T20:36:55.782Z,101174.81
2023-09-17T20:39:24.194Z,101172.65
2023-09-17T20:41:52.600Z,101174.13
2023-09-17T20:44:21.753Z,101171.20
2023-09-17T20:46:50.186Z,101171.23
2023-09-17T20:49:18.581Z,101171.39
2023-09-17T20:51:47.049Z,101170.32
2023-09-17T20:54:15.541Z,101166.81
2023-09-17T20:56:44.975Z,101167.10
2023-09-17T20:59:14.439Z,101171.40
2023-09-17T21:01:42.804Z,101171.24
2023-09-17T21:04:11.137Z,101172.04
2023-09-17T21:06:39.553Z,101170.52
2023-09-17T21:09:07.925Z,101168.77
2023-09-17T21:11:36.449Z,101166.70
2023-09-17T21:14:04.997Z,101163.76
2023-09-17T21:16:33.380Z,101164.97
2023-09-17T21:19:01.895Z,101166.03
2023-09-17T21:21:30.284Z,101167.95
2023-09-17T21:23:58.647Z,101169.86
2023-09-17T21:26:27.142Z,101170.41
2023-09-17T21:28:55.793Z,101173.45
2023-09-17T21:31:26.030Z,101175.55
2023-09-17T21:33:54.415Z,101173.77
2023-09-17T21:36:23.131Z,101175.34
2023-09-17T21:38:51.554Z,101174.06
2023-09-17T21:41:20.219Z,101176.10
2023-09-17T21:43:48.593Z,101173.44
2023-09-17T21:46:16.907Z,101170.48
2023-09-17T21:48:45.271Z,101174.15
2023-09-17T21:51:13.783Z,101177.25
2023-09-17T21:53:42.174Z,101178.27
2023-09-17T21:56:10.942Z,101178.36
2023-09-17T21:58:39.363Z,101177.67
2023-09-17T22:01:07.878Z,101176.56
2023-09-17T22:03:37.197Z,101177.61
2023-09-17T22:06:05.774Z,101179.14
2023-09-17T22:08:34.181Z,101177.95
2023-09-17T22:11:06.906Z,101178.10
2023-09-17T22:13:35.521Z,101179.52
2023-09-17T22:16:05.009Z,101181.60
2023-09-17T22:18:35.085Z,101182.23
2023-09-17T22:21:08.522Z,101178.10
2023-09-17T22:23:37.594Z,101178.98
2023-09-17T22:26:10.163Z,101175.91
2023-09-17T22:28:38.659Z,101171.59
2023-09-17T22:31:16.415Z,101175.52
2023-09-17T22:33:46.021Z,101177.29
2023-09-17T22:36:14.385Z,101175.54
2023-09-17T22:38:45.265Z,101170.85
2023-09-17T22:41:25.331Z,101175.62
2023-09-17T22:43:57.672Z,101174.87
2023-09-17T22:46:33.302Z,101172.91
2023-09-17T22:49:01.717Z,101173.02
2023-09-17T22:51:31.737Z,101174.54
2023-09-17T22:54:03.906Z,101173.34
2023-09-17T22:56:32.888Z,101172.29
2023-09-17T22:59:01.494Z,101169.16
2023-09-17T23:01:30.859Z,101169.16
2023-09-17T23:03:59.312Z,101172.60
2023-09-17T23:06:28.063Z,101175.63
2023-09-17T23:08:59.666Z,101175.00
2023-09-17T23:11:28.134Z,101173.98
2023-09-17T23:13:56.570Z,101175.56
2023-09-17T23:16:24.960Z,101173.06
2023-09-17T23:18:55.403Z,101173.85
2023-09-17T23:21:24.012Z,101171.42
2023-09-17T23:23:54.317Z,101176.31
2023-09-17T23:26:29.410Z,101174.05
2023-09-17T23:28:59.135Z,101175.98
2023-09-17T23:31:28.609Z,101173.64
2023-09-17T23:33:57.741Z,101168.67
2023-09-17T23:36:28.698Z,101172.39
2023-09-17T23:38:57.433Z,101171.95
2023-09-17T23:41:25.950Z,101171.73
2023-09-17T23:43:54.352Z,101172.20
2023-09-17T23:46:23.967Z,101170.14
2023-09-17T23:48:52.471Z,101167.25
2023-09-17T23:51:21.020Z,101167.41
2023-09-17T23:53:49.468Z,101162.61
2023-09-17T23:56:18.396Z,101162.26
2023-09-17T23:58:47.640Z,101164.75
